Time;durP1;ratioP1;P1;durP2;ratioP2;P2;SDS_P1;SDS_P2;PMS_P1;PMS_P2;Temp;Humidity;BMP_temperature;BMP_pressure;BME280_temperature;BME280_humidity;BME280_pressure;Samples;Min_cycle;Max_cycle;Signal;HPM_P1;HPM_P2
2022/07/20 00:01:16;;;;;;;0.65;0.52;;;24.30;74.50;;;;;;5034288;28;20044;-86
2022/07/20 00:03:45;;;;;;;1.25;1.17;;;24.30;74.10;;;;;;5035280;28;20577;-86
2022/07/20 00:06:12;;;;;;;0.77;0.57;;;24.30;73.60;;;;;;5052231;28;20493;-86
2022/07/20 00:11:21;;;;;;;0.43;0.40;;;24.30;74.50;;;;;;5052039;28;20075;-86
2022/07/20 00:13:55;;;;;;;0.22;0.22;;;24.20;73.70;;;;;;5054948;28;20070;-86
2022/07/20 00:16:23;;;;;;;0.50;0.50;;;24.20;74.10;;;;;;5072234;28;20039;-82
2022/07/20 00:18:49;;;;;;;0.25;0.25;;;24.10;74.00;;;;;;5055175;28;20041;-82
2022/07/20 00:21:16;;;;;;;0.65;0.65;;;24.00;74.30;;;;;;5071974;28;20037;-82
2022/07/20 00:23:41;;;;;;;0.13;0.13;;;23.90;74.40;;;;;;5072062;28;20037;-82
2022/07/20 00:26:08;;;;;;;1.23;0.50;;;23.90;74.20;;;;;;5071916;28;20544;-82
2022/07/20 00:28:34;;;;;;;0.52;0.45;;;23.80;74.00;;;;;;5057931;28;20040;-81
2022/07/20 00:31:00;;;;;;;0.88;0.70;;;23.80;74.40;;;;;;5052129;28;20128;-82
2022/07/20 00:33:25;;;;;;;0.60;0.40;;;23.80;74.30;;;;;;5035460;28;20045;-83
2022/07/20 00:35:51;;;;;;;0.45;0.38;;;23.80;74.30;;;;;;5051744;28;20041;-84
2022/07/20 00:38:17;;;;;;;0.25;0.25;;;23.70;74.30;;;;;;5051955;28;20129;-84
2022/07/20 00:40:43;;;;;;;0.28;0.28;;;23.70;74.60;;;;;;5051644;28;20041;-83
2022/07/20 00:43:09;;;;;;;1.08;0.98;;;23.60;74.40;;;;;;5051655;28;20041;-84
2022/07/20 00:45:35;;;;;;;0.00;0.00;;;23.60;74.40;;;;;;5034876;28;20183;-84
2022/07/20 00:48:01;;;;;;;0.85;0.65;;;23.50;74.70;;;;;;5051659;28;20128;-84
2022/07/20 00:50:27;;;;;;;0.17;0.17;;;23.50;74.60;;;;;;5052915;28;20078;-85
2022/07/20 00:52:53;;;;;;;0.80;0.32;;;23.40;74.80;;;;;;5055480;28;20045;-85
2022/07/20 00:55:19;;;;;;;1.95;1.27;;;23.30;75.10;;;;;;5055509;28;20044;-85
2022/07/20 00:57:44;;;;;;;0.57;0.57;;;23.20;75.70;;;;;;5074523;28;20043;-85
2022/07/20 01:00:11;;;;;;;0.20;0.20;;;23.10;76.50;;;;;;5074055;28;20078;-85
2022/07/20 01:02:38;;;;;;;0.10;0.10;;;23.00;75.70;;;;;;5058593;28;20505;-85
2022/07/20 01:05:14;;;;;;;0.35;0.20;;;23.00;76.00;;;;;;5075392;28;20036;-85
2022/07/20 01:07:48;;;;;;;0.38;0.38;;;22.90;76.50;;;;;;5059877;28;20036;-85
2022/07/20 01:10:16;;;;;;;0.22;0.22;;;22.90;76.60;;;;;;5075259;28;20047;-85
2022/07/20 01:12:51;;;;;;;0.52;0.52;;;22.80;76.20;;;;;;5058493;28;20067;-85
2022/07/20 01:15:17;;;;;;;0.57;0.57;;;22.70;76.40;;;;;;5075109;28;20040;-85
2022/07/20 01:17:44;;;;;;;0.85;0.85;;;22.70;76.60;;;;;;5041770;28;20474;-85
2022/07/20 01:20:15;;;;;;;0.50;0.50;;;22.70;78.10;;;;;;5058325;28;20036;-85
2022/07/20 01:22:42;;;;;;;1.13;0.25;;;22.60;78.10;;;;;;5075120;28;20048;-85
2022/07/20 01:25:08;;;;;;;2.80;1.83;;;22.40;77.70;;;;;;5070003;28;20441;-85
2022/07/20 01:27:33;;;;;;;0.90;0.55;;;22.30;77.80;;;;;;5054824;28;20033;-85
2022/07/20 01:29:59;;;;;;;3.20;0.45;;;22.20;78.80;;;;;;5055094;28;20033;-85
2022/07/20 01:32:25;;;;;;;0.28;0.28;;;22.00;80.00;;;;;;5038405;28;20487;-85
2022/07/20 01:34:50;;;;;;;4.38;0.43;;;21.90;81.20;;;;;;5038258;28;20045;-85
2022/07/20 01:37:16;;;;;;;0.73;0.73;;;21.80;79.30;;;;;;5055115;28;20045;-85
2022/07/20 01:39:42;;;;;;;0.43;0.32;;;21.80;81.20;;;;;;5054523;28;20051;-85
2022/07/20 01:42:07;;;;;;;0.57;0.57;;;21.60;81.70;;;;;;5054875;28;20052;-85
2022/07/20 01:44:33;;;;;;;0.20;0.20;;;21.60;80.60;;;;;;5054368;28;20057;-85
2022/07/20 01:46:59;;;;;;;0.28;0.28;;;21.50;81.80;;;;;;5021527;28;20041;-85
2022/07/20 01:49:27;;;;;;;0.30;0.30;;;21.30;81.60;;;;;;5037903;28;20037;-85
2022/07/20 01:51:54;;;;;;;0.17;0.17;;;21.30;83.00;;;;;;5054464;28;20051;-86
2022/07/20 01:54:19;;;;;;;0.17;0.17;;;21.20;83.60;;;;;;5054360;28;20044;-85
2022/07/20 01:56:45;;;;;;;0.40;0.40;;;21.20;81.70;;;;;;5048616;28;20102;-86
2022/07/20 01:59:11;;;;;;;0.30;0.30;;;21.20;82.50;;;;;;5074436;28;20044;-85
2022/07/20 02:01:37;;;;;;;0.00;0.00;;;21.20;83.00;;;;;;5055752;28;20375;-85
2022/07/20 02:04:04;;;;;;;0.17;0.17;;;21.10;84.50;;;;;;5073796;28;20051;-85
2022/07/20 02:06:30;;;;;;;0.15;0.15;;;21.10;83.90;;;;;;5057604;28;20079;-85
2022/07/20 02:08:56;;;;;;;0.20;0.20;;;20.90;83.10;;;;;;5074110;28;20071;-85
2022/07/20 02:11:22;;;;;;;0.10;0.10;;;20.90;83.50;;;;;;5074306;28;20048;-85
2022/07/20 02:13:47;;;;;;;0.30;0.25;;;20.90;83.40;;;;;;5057235;28;20044;-83
2022/07/20 02:16:16;;;;;;;0.20;0.20;;;20.90;83.20;;;;;;5074301;28;20052;-83
2022/07/20 02:18:45;;;;;;;0.30;0.30;;;21.00;82.50;;;;;;5073993;28;20413;-83
2022/07/20 02:21:12;;;;;;;0.47;0.47;;;21.10;81.90;;;;;;5074258;28;20383;-83
2022/07/20 02:23:37;;;;;;;0.05;0.05;;;21.20;81.30;;;;;;5057120;28;20036;-84
2022/07/20 02:26:03;;;;;;;2.08;0.65;;;21.30;82.40;;;;;;5057329;28;20048;-84
2022/07/20 02:28:29;;;;;;;0.15;0.15;;;21.30;81.40;;;;;;5073694;28;20054;-83
2022/07/20 02:30:55;;;;;;;0.75;0.40;;;21.40;80.70;;;;;;5074094;28;20127;-85
2022/07/20 02:33:21;;;;;;;0.35;0.35;;;21.50;80.40;;;;;;5073671;28;20044;-85
2022/07/20 02:35:47;;;;;;;0.20;0.20;;;21.60;80.50;;;;;;5073586;28;20411;-86
2022/07/20 02:38:12;;;;;;;0.00;0.00;;;21.60;80.60;;;;;;5073572;28;20044;-85
2022/07/20 02:40:38;;;;;;;0.20;0.20;;;21.60;79.90;;;;;;5056951;28;20048;-85
2022/07/20 02:43:07;;;;;;;0.00;0.00;;;21.70;79.90;;;;;;5056968;28;20067;-85
2022/07/20 02:45:33;;;;;;;0.40;0.38;;;21.60;79.50;;;;;;5073379;28;20181;-85
2022/07/20 02:48:02;;;;;;;0.93;0.90;;;21.70;79.50;;;;;;5073573;28;20044;-81
2022/07/20 02:50:36;;;;;;;0.22;0.22;;;21.70;79.20;;;;;;5073483;28;20052;-81
2022/07/20 02:53:03;;;;;;;0.30;0.22;;;21.80;79.20;;;;;;5073038;28;20106;-81
2022/07/20 02:55:28;;;;;;;0.20;0.20;;;21.80;79.30;;;;;;5056575;28;20048;-81
2022/07/20 02:57:54;;;;;;;0.20;0.20;;;21.90;79.20;;;;;;5073015;28;20036;-81
2022/07/20 03:00:20;;;;;;;0.77;0.77;;;21.90;78.50;;;;;;5055249;28;20048;-81
2022/07/20 03:02:46;;;;;;;0.68;0.68;;;21.90;78.60;;;;;;5072944;28;20040;-81
2022/07/20 03:05:12;;;;;;;0.55;0.55;;;21.90;78.50;;;;;;5072815;28;20040;-85
2022/07/20 03:07:38;;;;;;;12.52;1.58;;;21.90;78.50;;;;;;5039423;28;20501;-85
2022/07/20 03:10:06;;;;;;;0.30;0.30;;;21.90;78.80;;;;;;5073199;28;20044;-86
2022/07/20 03:12:31;;;;;;;0.63;0.57;;;21.90;78.80;;;;;;5072784;28;20040;-86
2022/07/20 03:14:57;;;;;;;0.40;0.40;;;22.00;78.20;;;;;;5039486;28;20052;-86
2022/07/20 03:17:23;;;;;;;0.15;0.15;;;22.00;77.80;;;;;;5072810;28;20048;-85
2022/07/20 03:19:49;;;;;;;0.32;0.32;;;22.00;77.80;;;;;;5072800;28;20041;-85
2022/07/20 03:22:15;;;;;;;0.20;0.20;;;22.00;77.80;;;;;;5056023;28;20070;-85
2022/07/20 03:24:41;;;;;;;0.25;0.25;;;22.00;77.50;;;;;;5072436;28;20032;-85
2022/07/20 03:27:07;;;;;;;0.32;0.32;;;22.00;77.70;;;;;;5072939;28;20086;-85
2022/07/20 03:29:33;;;;;;;0.32;0.32;;;22.00;78.10;;;;;;5072330;28;20045;-85
2022/07/20 03:31:58;;;;;;;1.90;0.60;;;22.00;78.00;;;;;;5056038;28;20047;-85
2022/07/20 03:34:24;;;;;;;0.47;0.47;;;21.90;77.90;;;;;;5056287;28;20052;-85
2022/07/20 03:36:50;;;;;;;0.20;0.20;;;21.90;77.90;;;;;;5072382;28;20052;-85
2022/07/20 03:39:16;;;;;;;0.20;0.20;;;21.80;78.50;;;;;;5072311;28;20044;-86
2022/07/20 03:41:43;;;;;;;1.42;1.10;;;21.80;78.30;;;;;;5072614;28;20040;-85
2022/07/20 03:44:09;;;;;;;0.55;0.43;;;21.80;78.40;;;;;;5072191;28;20056;-85
2022/07/20 03:46:34;;;;;;;1.67;0.55;;;21.70;78.60;;;;;;5072630;28;20028;-85
2022/07/20 03:49:00;;;;;;;0.57;0.55;;;21.70;78.60;;;;;;5072271;28;20487;-85
2022/07/20 03:51:26;;;;;;;0.90;0.63;;;21.70;78.70;;;;;;5072222;28;20044;-85
2022/07/20 03:53:52;;;;;;;0.10;0.10;;;21.70;79.80;;;;;;5072227;28;20052;-85
2022/07/20 03:56:18;;;;;;;0.30;0.30;;;21.70;78.80;;;;;;5072147;28;20410;-85
2022/07/20 03:58:43;;;;;;;0.28;0.28;;;21.60;79.00;;;;;;5055365;28;20071;-85
2022/07/20 04:01:09;;;;;;;0.22;0.22;;;21.60;79.00;;;;;;5054255;28;20047;-85
2022/07/20 04:03:35;;;;;;;0.20;0.20;;;21.50;79.10;;;;;;5055187;28;20036;-85
2022/07/20 04:06:02;;;;;;;0.52;0.52;;;21.50;79.20;;;;;;5055795;28;20037;-85
2022/07/20 04:08:28;;;;;;;0.85;0.50;;;21.50;79.10;;;;;;5055287;28;20037;-85
2022/07/20 04:10:53;;;;;;;2.90;0.60;;;21.60;79.10;;;;;;5055755;28;20121;-85
2022/07/20 04:13:22;;;;;;;0.10;0.10;;;21.50;79.70;;;;;;5072079;28;20048;-85
2022/07/20 04:15:48;;;;;;;0.20;0.20;;;21.50;79.30;;;;;;5055485;28;20098;-85
2022/07/20 04:18:16;;;;;;;0.50;0.50;;;21.50;79.60;;;;;;5072140;28;20036;-85
2022/07/20 04:20:42;;;;;;;0.30;0.30;;;21.60;80.00;;;;;;5071833;28;20052;-85
2022/07/20 04:23:08;;;;;;;0.28;0.28;;;21.60;79.30;;;;;;5055439;28;20040;-85
2022/07/20 04:25:34;;;;;;;0.47;0.47;;;21.60;79.60;;;;;;5058173;28;20040;-85
2022/07/20 04:28:00;;;;;;;0.93;0.65;;;21.70;79.40;;;;;;5062216;28;20395;-81
2022/07/20 04:30:26;;;;;;;1.02;0.40;;;21.70;79.30;;;;;;5078478;28;20052;-81
2022/07/20 04:32:51;;;;;;;0.45;0.45;;;21.60;80.40;;;;;;5061752;28;20041;-81
2022/07/20 04:35:17;;;;;;;0.22;0.22;;;21.50;80.00;;;;;;5078442;28;20055;-81
2022/07/20 04:37:43;;;;;;;0.30;0.30;;;21.50;80.80;;;;;;5061563;28;20041;-81
2022/07/20 04:40:09;;;;;;;0.52;0.47;;;21.40;80.40;;;;;;5078430;28;20098;-81
2022/07/20 04:42:35;;;;;;;1.25;0.93;;;21.40;81.10;;;;;;5078374;28;20074;-81
2022/07/20 04:45:01;;;;;;;0.20;0.20;;;21.50;80.70;;;;;;5050199;28;20085;-85
2022/07/20 04:47:26;;;;;;;0.35;0.25;;;21.50;80.70;;;;;;5058547;28;20041;-85
2022/07/20 04:49:52;;;;;;;2.58;1.15;;;21.60;80.90;;;;;;5058176;28;20544;-85
2022/07/20 04:52:18;;;;;;;0.20;0.20;;;21.60;80.20;;;;;;5058231;28;20056;-85
2022/07/20 04:54:43;;;;;;;0.22;0.22;;;21.70;80.60;;;;;;5058300;28;20051;-85
2022/07/20 04:57:09;;;;;;;0.95;0.43;;;21.70;81.30;;;;;;5058493;28;20055;-85
2022/07/20 04:59:35;;;;;;;0.50;0.50;;;21.80;80.20;;;;;;5058185;28;20525;-82
2022/07/20 05:02:01;;;;;;;0.40;0.40;;;21.90;80.10;;;;;;5023919;28;20041;-82
2022/07/20 05:04:27;;;;;;;0.95;0.65;;;21.90;80.00;;;;;;5041313;28;20044;-82
2022/07/20 05:06:52;;;;;;;1.35;1.25;;;22.00;80.00;;;;;;5041826;28;20033;-82
2022/07/20 05:09:18;;;;;;;0.10;0.10;;;22.00;80.50;;;;;;5058446;28;20049;-82
2022/07/20 05:11:44;;;;;;;0.20;0.20;;;22.10;80.20;;;;;;5058264;28;20482;-86
2022/07/20 05:14:10;;;;;;;0.43;0.40;;;22.20;80.60;;;;;;5058009;28;20044;-86
2022/07/20 05:16:36;;;;;;;1.85;1.17;;;22.30;79.40;;;;;;5042195;28;20036;-82
2022/07/20 05:19:02;;;;;;;0.28;0.28;;;22.40;79.90;;;;;;5041249;28;20090;-82
2022/07/20 05:21:28;;;;;;;0.65;0.40;;;22.50;79.70;;;;;;5058137;28;20048;-82
2022/07/20 05:23:54;;;;;;;0.55;0.55;;;22.80;79.70;;;;;;5041636;28;20049;-82
2022/07/20 05:26:20;;;;;;;0.52;0.52;;;23.10;78.50;;;;;;5041457;28;20462;-82
2022/07/20 05:28:46;;;;;;;1.05;0.47;;;23.10;78.80;;;;;;5057938;28;20094;-82
2022/07/20 05:31:14;;;;;;;1.02;0.68;;;23.30;78.30;;;;;;5058253;28;20135;-82
2022/07/20 05:33:41;;;;;;;0.60;0.50;;;24.90;76.60;;;;;;5057868;28;20090;-84
2022/07/20 05:36:08;;;;;;;0.00;0.00;;;25.20;75.30;;;;;;5057743;28;20383;-84
2022/07/20 05:38:34;;;;;;;0.20;0.20;;;26.70;73.00;;;;;;5053770;28;20033;-85
2022/07/20 05:41:00;;;;;;;0.40;0.40;;;27.20;72.20;;;;;;5054687;28;20059;-85
2022/07/20 05:43:26;;;;;;;1.08;0.90;;;28.10;70.20;;;;;;5054805;28;20479;-85
2022/07/20 05:45:51;;;;;;;0.30;0.30;;;28.80;68.20;;;;;;5072960;28;20059;-85
2022/07/20 05:48:17;;;;;;;0.30;0.30;;;29.90;67.00;;;;;;5074519;28;20048;-85
2022/07/20 05:50:43;;;;;;;0.10;0.10;;;30.00;65.20;;;;;;5074796;28;20047;-87
2022/07/20 05:53:11;;;;;;;0.55;0.50;;;30.50;67.30;;;;;;5057756;28;20036;-88
2022/07/20 05:55:37;;;;;;;0.30;0.30;;;30.90;64.00;;;;;;5074440;28;20490;-88
2022/07/20 05:58:04;;;;;;;0.45;0.45;;;31.20;63.50;;;;;;5057650;28;20448;-89
2022/07/20 06:00:31;;;;;;;0.45;0.45;;;31.70;63.10;;;;;;5056368;28;20048;-88
2022/07/20 06:02:57;;;;;;;0.40;0.40;;;31.90;63.00;;;;;;5074452;28;20036;-88
2022/07/20 06:05:23;;;;;;;0.47;0.47;;;32.10;63.40;;;;;;5057581;28;20556;-89
2022/07/20 06:07:48;;;;;;;0.30;0.30;;;32.30;63.10;;;;;;5074287;28;20086;-87
2022/07/20 06:10:14;;;;;;;0.30;0.30;;;32.60;61.70;;;;;;5057865;28;20079;-86
2022/07/20 06:12:40;;;;;;;0.22;0.22;;;32.80;61.50;;;;;;5040832;28;20127;-87
2022/07/20 06:15:07;;;;;;;0.28;0.28;;;33.10;61.50;;;;;;5074030;28;20124;-86
2022/07/20 06:17:37;;;;;;;0.55;0.55;;;33.40;60.50;;;;;;5053983;28;20403;-86
2022/07/20 06:20:11;;;;;;;0.30;0.30;;;33.70;60.40;;;;;;5054011;28;20056;-87
2022/07/20 06:22:38;;;;;;;1.30;0.77;;;33.80;59.70;;;;;;5054167;28;20044;-86
2022/07/20 06:25:05;;;;;;;0.25;0.25;;;34.10;59.60;;;;;;5058309;28;20047;-84
2022/07/20 06:27:31;;;;;;;0.60;0.60;;;34.30;59.30;;;;;;5073704;28;20052;-85
2022/07/20 06:29:58;;;;;;;0.40;0.40;;;34.50;59.80;;;;;;5056525;28;20044;-84
2022/07/20 06:32:24;;;;;;;0.52;0.52;;;34.60;61.00;;;;;;5056227;28;20483;-84
2022/07/20 06:34:50;;;;;;;0.32;0.32;;;34.70;59.90;;;;;;5073686;28;20045;-85
2022/07/20 06:37:15;;;;;;;0.50;0.50;;;34.70;59.50;;;;;;5073690;28;20197;-85
2022/07/20 06:39:41;;;;;;;0.52;0.52;;;34.70;60.20;;;;;;5056921;28;20041;-82
2022/07/20 06:42:10;;;;;;;0.35;0.35;;;34.70;60.50;;;;;;5057274;28;20041;-81
2022/07/20 06:44:36;;;;;;;0.38;0.35;;;34.80;60.80;;;;;;5056600;28;20048;-82
2022/07/20 06:47:02;;;;;;;1.17;0.85;;;35.00;60.90;;;;;;5073637;28;20109;-82
2022/07/20 06:49:28;;;;;;;0.60;0.60;;;35.20;61.00;;;;;;5056386;28;20395;-82
2022/07/20 06:51:54;;;;;;;0.30;0.30;;;35.40;61.70;;;;;;5056809;28;20083;-82
2022/07/20 06:54:23;;;;;;;0.73;0.73;;;35.60;61.70;;;;;;5073423;28;20093;-82
2022/07/20 06:56:49;;;;;;;1.33;1.23;;;35.80;61.50;;;;;;5073268;28;20399;-88
2022/07/20 06:59:15;;;;;;;0.80;0.80;;;36.20;61.80;;;;;;5053428;22;20049;-85
2022/07/20 07:01:40;;;;;;;0.85;0.85;;;36.20;62.70;;;;;;5031957;28;20474;-85
2022/07/20 07:04:06;;;;;;;1.00;0.98;;;36.40;62.10;;;;;;5033352;28;20033;-85
2022/07/20 07:06:32;;;;;;;0.95;0.90;;;36.10;64.00;;;;;;5016910;28;20037;-85
2022/07/20 07:08:59;;;;;;;1.23;1.13;;;36.00;64.30;;;;;;5016892;28;20044;-85
2022/07/20 07:11:25;;;;;;;1.08;0.95;;;36.10;64.10;;;;;;5016990;28;20041;-85
2022/07/20 07:13:51;;;;;;;1.52;1.42;;;36.10;64.30;;;;;;5016683;28;20038;-87
2022/07/20 07:16:17;;;;;;;1.48;1.38;;;36.20;64.10;;;;;;5033030;28;20042;-86
2022/07/20 07:18:43;;;;;;;2.53;2.22;;;36.40;65.00;;;;;;5032816;28;20037;-87
2022/07/20 07:21:09;;;;;;;0.85;0.75;;;36.40;64.80;;;;;;5016733;28;20049;-86
2022/07/20 07:23:34;;;;;;;1.63;1.27;;;36.60;64.70;;;;;;5033074;28;20080;-86
2022/07/20 07:26:00;;;;;;;1.02;0.90;;;36.50;64.40;;;;;;5016596;28;20041;-87
2022/07/20 07:28:26;;;;;;;1.48;1.20;;;36.50;64.80;;;;;;5016269;28;20391;-86
2022/07/20 07:30:52;;;;;;;1.13;1.00;;;36.60;64.60;;;;;;5032720;28;20072;-88
2022/07/20 07:33:25;;;;;;;1.42;1.33;;;36.60;64.60;;;;;;5032719;28;20049;-88
2022/07/20 07:35:54;;;;;;;0.82;0.82;;;36.80;65.30;;;;;;5033089;28;20039;-88
2022/07/20 07:38:21;;;;;;;1.65;1.55;;;37.00;65.20;;;;;;5032566;28;20041;-89
2022/07/20 07:40:47;;;;;;;1.55;1.10;;;37.10;65.20;;;;;;5032646;28;20052;-88
2022/07/20 07:43:12;;;;;;;1.20;1.10;;;37.10;65.20;;;;;;5032355;28;20084;-89
2022/07/20 07:45:38;;;;;;;0.90;0.82;;;37.20;65.40;;;;;;5032812;28;20077;-89
2022/07/20 07:48:05;;;;;;;1.48;1.38;;;37.20;65.30;;;;;;5032729;28;20037;-82
2022/07/20 07:50:31;;;;;;;1.17;1.05;;;37.10;66.10;;;;;;5049339;28;20045;-82
2022/07/20 07:52:57;;;;;;;1.60;1.50;;;36.50;66.10;;;;;;5032625;28;20041;-82
2022/07/20 07:55:23;;;;;;;1.17;1.08;;;36.40;66.60;;;;;;5032708;28;20064;-82
2022/07/20 07:57:49;;;;;;;1.55;0.98;;;36.40;67.50;;;;;;5034732;28;20499;-82
2022/07/20 08:00:15;;;;;;;4.13;2.50;;;36.50;67.50;;;;;;5047004;28;20510;-82
2022/07/20 08:02:41;;;;;;;1.67;1.30;;;36.50;68.10;;;;;;5032111;28;20173;-82
2022/07/20 08:05:07;;;;;;;1.45;1.35;;;36.50;67.30;;;;;;5032089;28;20037;-88
2022/07/20 08:07:39;;;;;;;2.65;2.35;;;36.50;67.30;;;;;;4999324;28;20033;-88
2022/07/20 08:10:07;;;;;;;1.77;1.63;;;36.50;68.10;;;;;;5016662;28;20175;-88
2022/07/20 08:12:34;;;;;;;2.10;1.90;;;37.10;68.20;;;;;;5032267;28;20391;-89
2022/07/20 08:14:59;;;;;;;1.38;1.27;;;37.30;67.20;;;;;;5032040;28;20041;-88
2022/07/20 08:17:25;;;;;;;1.88;1.33;;;37.30;67.10;;;;;;5032376;28;20037;-88
2022/07/20 08:19:51;;;;;;;3.35;2.42;;;37.50;67.10;;;;;;5015517;28;20124;-85
2022/07/20 08:22:17;;;;;;;2.55;1.58;;;36.90;67.20;;;;;;5015605;28;20465;-85
2022/07/20 08:24:42;;;;;;;2.22;1.92;;;36.90;67.80;;;;;;5031877;28;20037;-85
2022/07/20 08:27:08;;;;;;;3.13;1.90;;;37.10;68.00;;;;;;5032105;28;20046;-85
2022/07/20 08:29:34;;;;;;;2.65;2.17;;;36.90;68.20;;;;;;5015460;28;20479;-85
2022/07/20 08:31:59;;;;;;;2.10;1.35;;;36.60;68.10;;;;;;5015562;28;20048;-85
2022/07/20 08:34:25;;;;;;;1.83;1.50;;;36.60;68.30;;;;;;5031837;28;20042;-85
2022/07/20 08:36:51;;;;;;;2.78;2.30;;;37.00;68.60;;;;;;5032016;28;20470;-89
2022/07/20 08:39:16;;;;;;;3.25;2.95;;;37.00;68.00;;;;;;5032014;28;20041;-88
2022/07/20 08:41:43;;;;;;;1.60;1.50;;;37.30;68.50;;;;;;5031769;28;20037;-89
2022/07/20 08:44:08;;;;;;;2.58;2.22;;;37.90;68.10;;;;;;5032025;28;20080;-89
2022/07/20 08:46:36;;;;;;;4.60;1.90;;;38.30;67.70;;;;;;5031773;28;20041;-88
2022/07/20 08:49:02;;;;;;;13.10;1.85;;;38.30;67.90;;;;;;5031653;28;20033;-88
2022/07/20 08:51:28;;;;;;;4.15;2.60;;;38.40;67.40;;;;;;5031737;28;20037;-88
2022/07/20 08:53:55;;;;;;;9.35;1.95;;;38.30;67.30;;;;;;5015222;28;20398;-85
2022/07/20 08:56:22;;;;;;;2.10;1.90;;;37.80;67.80;;;;;;5038758;28;20530;-85
2022/07/20 08:58:47;;;;;;;2.63;2.28;;;37.80;67.20;;;;;;5051252;28;20139;-85
2022/07/20 09:01:17;;;;;;;2.65;2.30;;;37.90;66.80;;;;;;5038858;28;20057;-85
2022/07/20 09:03:47;;;;;;;3.95;1.88;;;37.70;67.10;;;;;;5015037;28;20052;-85
2022/07/20 09:06:13;;;;;;;12.60;1.38;;;37.60;67.60;;;;;;5031603;28;20037;-85
2022/07/20 09:08:58;;;;;;;3.05;1.92;;;37.70;67.30;;;;;;5015122;28;20041;-85
2022/07/20 09:11:25;;;;;;;5.78;2.95;;;38.10;66.60;;;;;;5032613;28;20384;-85
2022/07/20 09:13:50;;;;;;;2.53;1.58;;;38.20;65.80;;;;;;5035189;28;20042;-85
2022/07/20 09:16:36;;;;;;;4.05;3.03;;;38.30;65.80;;;;;;5019138;28;20132;-85
2022/07/20 09:19:03;;;;;;;3.35;2.47;;;38.50;65.90;;;;;;5035333;28;20045;-85
2022/07/20 09:21:30;;;;;;;4.20;1.70;;;38.40;66.00;;;;;;5035687;28;20041;-85
2022/07/20 09:24:00;;;;;;;2.88;1.77;;;38.40;65.30;;;;;;5018537;28;20542;-85
2022/07/20 09:26:27;;;;;;;2.97;1.08;;;38.30;65.50;;;;;;5018580;28;20068;-89
2022/07/20 09:28:55;;;;;;;1.63;1.52;;;38.10;65.20;;;;;;5018421;28;20037;-88
2022/07/20 09:31:30;;;;;;;2.15;1.95;;;38.10;65.40;;;;;;5034940;28;20073;-88
2022/07/20 09:34:06;;;;;;;2.65;2.45;;;38.50;65.50;;;;;;5051431;28;20601;-89
2022/07/20 09:36:36;;;;;;;3.65;2.03;;;38.80;64.80;;;;;;5034813;28;20491;-89
2022/07/20 09:39:13;;;;;;;2.17;1.80;;;39.00;63.50;;;;;;5034605;28;20083;-88
2022/07/20 09:41:40;;;;;;;3.97;2.15;;;39.30;63.00;;;;;;5018619;28;20214;-88
2022/07/20 09:44:08;;;;;;;1.30;1.20;;;39.10;62.50;;;;;;5018158;28;20488;-87
2022/07/20 09:46:36;;;;;;;2.05;1.80;;;39.30;62.70;;;;;;5018225;28;20034;-86
2022/07/20 09:49:06;;;;;;;2.30;2.10;;;39.80;63.60;;;;;;5034700;28;20111;-86
2022/07/20 09:51:33;;;;;;;1.13;1.00;;;39.20;62.80;;;;;;5051282;28;20487;-87
2022/07/20 09:54:13;;;;;;;1.38;1.23;;;38.80;62.60;;;;;;5051165;28;20045;-87
2022/07/20 09:56:42;;;;;;;0.63;0.63;;;38.30;62.60;;;;;;5027467;28;20033;-85
2022/07/20 09:59:11;;;;;;;1.95;1.40;;;38.30;63.30;;;;;;5054375;28;20056;-87
2022/07/20 10:01:39;;;;;;;1.60;1.50;;;38.40;64.00;;;;;;5037997;28;20037;-83
2022/07/20 10:04:09;;;;;;;1.90;1.52;;;38.50;62.20;;;;;;5034101;28;20472;-83
2022/07/20 10:06:37;;;;;;;1.23;1.13;;;38.70;62.10;;;;;;5034560;28;20513;-83
2022/07/20 10:09:04;;;;;;;1.25;0.68;;;38.80;61.60;;;;;;5017824;28;20484;-83
2022/07/20 10:11:30;;;;;;;1.55;1.35;;;38.90;61.30;;;;;;5017753;28;20041;-83
2022/07/20 10:13:58;;;;;;;5.30;1.45;;;39.10;60.30;;;;;;5017929;28;20033;-83
2022/07/20 10:16:44;;;;;;;0.98;0.95;;;39.00;61.30;;;;;;5034336;28;20037;-87
2022/07/20 10:19:10;;;;;;;1.60;1.23;;;39.20;60.50;;;;;;5033915;28;20045;-86
2022/07/20 10:21:43;;;;;;;2.25;1.77;;;39.20;61.50;;;;;;5034139;28;20076;-86
2022/07/20 10:24:18;;;;;;;1.85;1.67;;;39.00;60.60;;;;;;5033169;28;20077;-86
2022/07/20 10:26:50;;;;;;;1.63;1.52;;;39.00;61.40;;;;;;5033921;28;20069;-87
2022/07/20 10:29:35;;;;;;;0.75;0.65;;;39.00;61.00;;;;;;5050448;28;20488;-86
2022/07/20 10:32:21;;;;;;;2.35;1.77;;;39.30;61.30;;;;;;5050545;28;20045;-87
2022/07/20 10:34:50;;;;;;;0.60;0.60;;;39.50;60.80;;;;;;5050471;28;20077;-83
2022/07/20 10:37:23;;;;;;;0.68;0.68;;;39.70;60.50;;;;;;5050612;28;20049;-82
2022/07/20 10:39:51;;;;;;;1.25;0.70;;;39.90;60.90;;;;;;5033720;28;20112;-83
2022/07/20 10:42:22;;;;;;;6.10;1.08;;;39.80;60.40;;;;;;5033922;28;20429;-82
2022/07/20 10:44:49;;;;;;;1.30;1.20;;;39.80;61.00;;;;;;5017181;28;20073;-82
2022/07/20 10:47:50;;;;;;;1.20;1.10;;;39.60;60.50;;;;;;5033666;28;20064;-83
2022/07/20 10:50:24;;;;;;;1.38;1.27;;;39.90;60.70;;;;;;5050499;28;20099;-85
2022/07/20 10:52:53;;;;;;;1.70;1.58;;;40.30;58.90;;;;;;5016953;28;20045;-85
2022/07/20 10:55:37;;;;;;;0.98;0.95;;;39.80;57.70;;;;;;5050046;28;20056;-85
2022/07/20 10:58:15;;;;;;;3.03;1.38;;;39.60;58.30;;;;;;5013618;28;20124;-85
2022/07/20 11:00:52;;;;;;;1.73;1.30;;;39.60;58.00;;;;;;5018491;28;20045;-85
2022/07/20 11:03:25;;;;;;;0.95;0.95;;;39.50;57.70;;;;;;5033432;28;20444;-85
2022/07/20 11:06:01;;;;;;;1.27;1.17;;;39.30;58.10;;;;;;5016943;28;20331;-85
2022/07/20 11:08:27;;;;;;;1.60;1.50;;;39.50;57.80;;;;;;5016939;28;20052;-83
2022/07/20 11:10:54;;;;;;;0.82;0.82;;;39.20;58.40;;;;;;5033199;28;20399;-82
2022/07/20 11:13:19;;;;;;;5.15;2.40;;;39.00;57.70;;;;;;5033317;28;20136;-82
2022/07/20 11:15:54;;;;;;;1.20;1.08;;;38.90;58.40;;;;;;5000239;28;20503;-83
2022/07/20 11:18:22;;;;;;;0.52;0.52;;;38.60;58.10;;;;;;5032994;28;20045;-82
2022/07/20 11:20:51;;;;;;;1.13;1.02;;;38.50;58.80;;;;;;5033208;28;20056;-82
2022/07/20 11:23:19;;;;;;;0.52;0.50;;;38.40;58.20;;;;;;5032960;28;20048;-87
2022/07/20 11:25:53;;;;;;;0.70;0.57;;;38.70;58.10;;;;;;5015953;28;20052;-87
2022/07/20 11:28:24;;;;;;;1.00;0.68;;;38.70;57.90;;;;;;5016636;28;20430;-86
2022/07/20 11:30:51;;;;;;;2.33;1.10;;;38.90;57.60;;;;;;5032672;28;20053;-86
2022/07/20 11:33:28;;;;;;;0.70;0.70;;;39.10;58.10;;;;;;5032748;28;20048;-87
2022/07/20 11:35:55;;;;;;;2.65;1.70;;;39.00;58.10;;;;;;5048363;28;20167;-87
2022/07/20 11:38:22;;;;;;;1.63;0.50;;;38.90;58.50;;;;;;5049208;28;20037;-85
2022/07/20 11:41:02;;;;;;;0.63;0.63;;;38.90;58.40;;;;;;5049250;28;20411;-85
2022/07/20 11:43:27;;;;;;;1.50;0.65;;;39.20;58.80;;;;;;5016300;28;20088;-85
2022/07/20 11:45:53;;;;;;;1.00;1.00;;;39.60;58.70;;;;;;5032537;28;20415;-85
2022/07/20 11:48:24;;;;;;;0.60;0.55;;;39.80;57.70;;;;;;5032714;28;20056;-85
2022/07/20 11:50:50;;;;;;;1.05;1.02;;;39.80;57.20;;;;;;5049400;28;20150;-85
2022/07/20 11:53:49;;;;;;;1.60;0.98;;;39.50;56.90;;;;;;5032421;28;20513;-85
2022/07/20 11:56:17;;;;;;;1.70;1.38;;;39.30;56.70;;;;;;5021368;28;20414;-82
2022/07/20 11:58:46;;;;;;;1.70;1.35;;;38.00;56.70;;;;;;5019023;28;20048;-82
2022/07/20 12:01:19;;;;;;;1.27;1.05;;;37.30;57.90;;;;;;5040658;28;20095;-83
2022/07/20 12:03:50;;;;;;;1.17;1.08;;;36.90;59.00;;;;;;5032372;28;20088;-82
2022/07/20 12:06:16;;;;;;;1.40;1.30;;;36.20;58.90;;;;;;5032062;28;20484;-83
2022/07/20 12:08:43;;;;;;;0.77;0.77;;;36.20;59.50;;;;;;5015886;28;20045;-82
2022/07/20 12:11:10;;;;;;;1.35;1.25;;;36.60;60.00;;;;;;5016070;28;20075;-83
2022/07/20 12:13:47;;;;;;;1.50;1.40;;;37.10;59.30;;;;;;5032270;28;20045;-88
2022/07/20 12:16:14;;;;;;;2.05;1.13;;;37.20;58.70;;;;;;5032144;28;20044;-89
2022/07/20 12:18:46;;;;;;;1.63;1.52;;;37.20;58.40;;;;;;5031916;28;20095;-89
2022/07/20 12:21:21;;;;;;;1.25;1.10;;;37.30;58.90;;;;;;5015616;28;20488;-88
2022/07/20 12:23:50;;;;;;;0.77;0.70;;;37.30;58.40;;;;;;5032047;28;20565;-89
2022/07/20 12:26:20;;;;;;;2.40;1.92;;;37.30;58.00;;;;;;5031941;28;20101;-89
2022/07/20 12:28:46;;;;;;;1.90;1.58;;;37.30;58.10;;;;;;5015482;28;20037;-89
2022/07/20 12:31:18;;;;;;;1.15;1.05;;;37.30;60.20;;;;;;5032162;28;20044;-91
2022/07/20 12:34:02;;;;;;;4.35;1.85;;;37.50;57.60;;;;;;5048399;28;20041;-90
2022/07/20 12:36:40;;;;;;;3.38;1.33;;;37.10;57.90;;;;;;5015779;28;20388;-91
2022/07/20 12:39:09;;;;;;;1.20;1.02;;;36.80;59.00;;;;;;5015355;28;20037;-90
2022/07/20 12:41:35;;;;;;;2.03;1.80;;;37.00;60.20;;;;;;5015575;28;20058;-90
2022/07/20 12:44:25;;;;;;;1.23;0.93;;;37.10;58.60;;;;;;5015759;28;20044;-90
2022/07/20 12:46:52;;;;;;;1.75;1.45;;;37.20;58.30;;;;;;5033704;28;20056;-88
2022/07/20 12:49:23;;;;;;;3.20;1.27;;;36.90;57.30;;;;;;5035845;28;20041;-87
2022/07/20 12:51:50;;;;;;;0.75;0.60;;;36.90;57.60;;;;;;5052321;28;20057;-87